Time;durP1;ratioP1;P1;durP2;ratioP2;P2;SDS_P1;SDS_P2;PMS_P1;PMS_P2;Temp;Humidity;BMP_temperature;BMP_pressure;BME280_temperature;BME280_humidity;BME280_pressure;Samples;Min_cycle;Max_cycle;Signal;HPM_P1;HPM_P2
2023/03/07 00:00:04;;;;;;;;;;;3.40;99.90;;;;;;4941197;29;19933;-69
2023/03/07 00:02:31;;;;;;;;;;;3.30;99.90;;;;;;4933264;29;19978;-66
2023/03/07 00:04:58;;;;;;;;;;;3.40;99.90;;;;;;4924965;29;20382;-69
2023/03/07 00:07:24;;;;;;;;;;;3.40;99.90;;;;;;4930264;29;19973;-69
2023/03/07 00:09:52;;;;;;;;;;;3.40;99.90;;;;;;4929533;29;19962;-70
2023/03/07 00:12:19;;;;;;;;;;;3.40;99.90;;;;;;4928220;29;20523;-69
2023/03/07 00:14:47;;;;;;;;;;;3.40;99.90;;;;;;4939581;29;20306;-69
2023/03/07 00:17:14;;;;;;;;;;;3.50;99.90;;;;;;4941726;29;20027;-69
2023/03/07 00:19:41;;;;;;;;;;;3.50;99.90;;;;;;4943125;29;19927;-69
2023/03/07 00:22:08;;;;;;;;;;;3.50;99.90;;;;;;4930717;29;20418;-69
2023/03/07 00:24:34;;;;;;;;;;;3.50;99.90;;;;;;4938357;29;19927;-69
2023/03/07 00:27:01;;;;;;;;;;;3.50;99.90;;;;;;4928547;29;20378;-69
2023/03/07 00:29:28;;;;;;;;;;;3.50;99.90;;;;;;4932924;29;20458;-69
2023/03/07 00:31:56;;;;;;;;;;;3.50;99.90;;;;;;4931050;29;19927;-69
2023/03/07 00:34:23;;;;;;;;;;;3.50;99.90;;;;;;4928563;29;19931;-70
2023/03/07 00:36:49;;;;;;;;;;;3.60;99.90;;;;;;4928499;29;20061;-68
2023/03/07 00:39:16;;;;;;;;;;;3.60;99.90;;;;;;4949059;29;19930;-69
2023/03/07 00:41:42;;;;;;;;;;;3.60;99.90;;;;;;4938712;28;19926;-69
2023/03/07 00:44:09;;;;;;;;;;;3.60;99.90;;;;;;4942999;29;19958;-67
2023/03/07 00:46:36;;;;;;;;;;;3.60;99.90;;;;;;4940403;28;20407;-67
2023/03/07 00:49:04;;;;;;;;;;;3.60;99.90;;;;;;4939439;28;19927;-68
2023/03/07 00:51:31;;;;;;;;;;;3.60;99.90;;;;;;4935651;29;19958;-68
2023/03/07 00:53:57;;;;;;;;;;;3.60;99.90;;;;;;4922183;29;19933;-69
2023/03/07 00:56:25;;;;;;;;;;;3.60;99.90;;;;;;4926785;29;19927;-69
2023/03/07 00:58:52;;;;;;;;;;;3.60;99.90;;;;;;4926807;29;20018;-70
2023/03/07 01:01:20;;;;;;;;;;;3.60;99.90;;;;;;4934138;28;19934;-69
2023/03/07 01:03:48;;;;;;;;;;;3.60;99.90;;;;;;4938092;29;19982;-69
2023/03/07 01:06:17;;;;;;;;;;;3.60;99.90;;;;;;4931653;29;19934;-68
2023/03/07 01:08:44;;;;;;;;;;;3.60;99.90;;;;;;4941441;29;19931;-70
2023/03/07 01:11:13;;;;;;;;;;;3.60;99.90;;;;;;4934578;28;19982;-67
2023/03/07 01:13:40;;;;;;;;;;;3.60;99.90;;;;;;4934901;29;20321;-68
2023/03/07 01:16:07;;;;;;;;;;;3.60;99.90;;;;;;4927760;29;19931;-69
2023/03/07 01:18:34;;;;;;;;;;;3.60;99.90;;;;;;4934493;28;19933;-69
2023/03/07 01:21:01;;;;;;;;;;;3.60;99.90;;;;;;4933949;29;19926;-68
2023/03/07 01:23:29;;;;;;;;;;;3.60;99.90;;;;;;4930519;29;19930;-69
2023/03/07 01:25:55;;;;;;;;;;;3.60;99.90;;;;;;4924357;29;20009;-70
2023/03/07 01:28:22;;;;;;;;;;;3.60;99.90;;;;;;4939379;29;19927;-69
2023/03/07 01:30:56;;;;;;;;;;;3.60;99.90;;;;;;4941177;29;20318;-69
2023/03/07 01:33:23;;;;;;;;;;;3.60;99.90;;;;;;4940481;28;19930;-68
2023/03/07 01:35:50;;;;;;;;;;;3.60;99.90;;;;;;4933302;29;19927;-68
2023/03/07 01:38:17;;;;;;;;;;;3.70;99.90;;;;;;4927828;29;19927;-69
2023/03/07 01:40:45;;;;;;;;;;;3.70;99.90;;;;;;4928993;29;19927;-69
2023/03/07 01:43:22;;;;;;;;;;;3.70;99.90;;;;;;4934152;28;20021;-69
2023/03/07 01:46:25;;;;;;;;;;;3.70;99.90;;;;;;4933075;29;19977;-69
2023/03/07 01:48:55;;;;;;;;;;;3.70;99.90;;;;;;4937332;29;19926;-69
2023/03/07 01:51:22;;;;;;;;;;;3.70;99.90;;;;;;4943927;28;19927;-69
2023/03/07 01:53:52;;;;;;;;;;;3.70;99.90;;;;;;4945508;29;19931;-69
2023/03/07 01:56:20;;;;;;;;;;;3.70;99.90;;;;;;4942709;29;19954;-69
2023/03/07 01:58:47;;;;;;;;;;;3.70;99.90;;;;;;4936919;28;19927;-69
2023/03/07 02:01:14;;;;;;;;;;;3.80;99.90;;;;;;4930931;29;19927;-69
2023/03/07 02:03:44;;;;;;;;;;;3.80;99.90;;;;;;4927798;29;19927;-68
2023/03/07 02:06:11;;;;;;;;;;;3.80;99.90;;;;;;4932718;29;19931;-68
2023/03/07 02:08:38;;;;;;;;;;;3.80;99.90;;;;;;4925501;29;19926;-69
2023/03/07 02:11:06;;;;;;;;;;;3.80;99.90;;;;;;4926814;29;19977;-68
2023/03/07 02:13:34;;;;;;;;;;;3.80;99.90;;;;;;4930161;29;19942;-71
2023/03/07 02:16:02;;;;;;;;;;;3.90;99.90;;;;;;4930323;29;19927;-69
2023/03/07 02:18:30;;;;;;;;;;;3.90;99.90;;;;;;4943188;29;19942;-69
2023/03/07 02:21:00;;;;;;;;;;;4.00;99.90;;;;;;4946805;29;20037;-71
2023/03/07 02:23:30;;;;;;;;;;;3.90;99.90;;;;;;4943590;28;19934;-71
2023/03/07 02:26:00;;;;;;;;;;;4.00;99.90;;;;;;4940612;29;20271;-69
2023/03/07 02:28:29;;;;;;;;;;;4.00;99.90;;;;;;4928550;29;19927;-70
2023/03/07 02:30:56;;;;;;;;;;;4.00;99.90;;;;;;4927588;29;20399;-69
2023/03/07 02:33:24;;;;;;;;;;;4.00;99.90;;;;;;4929404;29;19931;-68
2023/03/07 02:35:57;;;;;;;;;;;4.00;99.90;;;;;;4933760;29;19927;-69
2023/03/07 02:38:24;;;;;;;;;;;4.10;99.90;;;;;;4944710;28;19927;-69
2023/03/07 02:40:52;;;;;;;;;;;4.10;99.90;;;;;;4928757;29;19930;-68
2023/03/07 02:43:19;;;;;;;;;;;4.00;99.90;;;;;;4935316;29;20025;-69
2023/03/07 02:45:47;;;;;;;;;;;4.00;99.90;;;;;;4943791;29;19927;-69
2023/03/07 02:48:14;;;;;;;;;;;3.90;99.90;;;;;;4945842;28;19930;-70
2023/03/07 02:50:41;;;;;;;;;;;3.90;99.90;;;;;;4939426;28;19931;-69
2023/03/07 02:53:08;;;;;;;;;;;3.90;99.90;;;;;;4930517;29;19927;-68
2023/03/07 02:55:34;;;;;;;;;;;3.90;99.90;;;;;;4926439;29;19941;-69
2023/03/07 02:58:03;;;;;;;;;;;3.80;99.90;;;;;;4925792;29;19978;-69
2023/03/07 03:00:30;;;;;;;;;;;3.80;99.90;;;;;;4933799;29;19926;-69
2023/03/07 03:02:59;;;;;;;;;;;3.80;99.90;;;;;;4925821;29;20013;-69
2023/03/07 03:05:26;;;;;;;;;;;3.80;99.90;;;;;;4931672;29;20450;-70
2023/03/07 03:07:53;;;;;;;;;;;3.80;99.90;;;;;;4937903;29;19975;-70
2023/03/07 03:10:20;;;;;;;;;;;3.80;99.90;;;;;;4937234;29;20345;-70
2023/03/07 03:12:47;;;;;;;;;;;3.80;99.90;;;;;;4942907;28;19927;-68
2023/03/07 03:15:14;;;;;;;;;;;3.80;99.90;;;;;;4938203;29;19933;-69
2023/03/07 03:17:41;;;;;;;;;;;3.80;99.90;;;;;;4937056;29;19934;-70
2023/03/07 03:20:11;;;;;;;;;;;3.80;99.90;;;;;;4929899;29;19934;-70
2023/03/07 03:22:38;;;;;;;;;;;3.70;99.90;;;;;;4931950;29;19966;-69
2023/03/07 03:25:08;;;;;;;;;;;3.70;99.90;;;;;;4926528;29;20442;-69
2023/03/07 03:27:36;;;;;;;;;;;3.60;99.90;;;;;;4935346;29;19927;-69
2023/03/07 03:30:03;;;;;;;;;;;3.60;99.90;;;;;;4923500;29;19950;-69
2023/03/07 03:32:36;;;;;;;;;;;3.60;99.90;;;;;;4937350;28;20017;-70
2023/03/07 03:35:03;;;;;;;;;;;3.60;99.90;;;;;;4939825;29;19935;-69
2023/03/07 03:37:32;;;;;;;;;;;3.60;99.90;;;;;;4936151;28;19927;-69
2023/03/07 03:39:59;;;;;;;;;;;3.60;99.90;;;;;;4940791;29;19934;-69
2023/03/07 03:42:26;;;;;;;;;;;3.60;99.90;;;;;;4927366;29;20001;-69
2023/03/07 03:44:52;;;;;;;;;;;3.60;99.90;;;;;;4925611;29;20314;-70
2023/03/07 03:47:19;;;;;;;;;;;3.60;99.90;;;;;;4932333;29;19934;-70
2023/03/07 03:49:46;;;;;;;;;;;3.60;99.90;;;;;;4932319;29;19926;-68
2023/03/07 03:52:13;;;;;;;;;;;3.60;99.90;;;;;;4933754;29;19926;-68
2023/03/07 03:54:41;;;;;;;;;;;3.60;99.90;;;;;;4922477;29;20293;-70
2023/03/07 03:57:09;;;;;;;;;;;3.60;99.90;;;;;;4928787;29;20350;-68
2023/03/07 03:59:36;;;;;;;;;;;3.60;99.90;;;;;;4941497;28;20001;-70
2023/03/07 04:02:03;;;;;;;;;;;3.60;99.90;;;;;;4938417;29;19927;-69
2023/03/07 04:04:29;;;;;;;;;;;3.60;99.90;;;;;;4960139;28;19927;-69
2023/03/07 04:06:57;;;;;;;;;;;3.60;99.90;;;;;;4929464;29;19933;-70
2023/03/07 04:09:24;;;;;;;;;;;3.60;99.90;;;;;;4931687;29;20026;-69
2023/03/07 04:11:52;;;;;;;;;;;3.70;99.90;;;;;;4924532;29;19931;-69
2023/03/07 04:14:19;;;;;;;;;;;3.70;99.90;;;;;;4935214;29;19927;-69
2023/03/07 04:16:46;;;;;;;;;;;3.70;99.90;;;;;;4925821;29;20015;-69
2023/03/07 04:19:14;;;;;;;;;;;3.70;99.90;;;;;;4929870;29;20412;-69
2023/03/07 04:21:43;;;;;;;;;;;3.60;99.90;;;;;;4930782;28;19926;-69
2023/03/07 04:24:11;;;;;;;;;;;3.60;99.90;;;;;;4949281;29;19934;-67
2023/03/07 04:26:37;;;;;;;;;;;3.60;99.90;;;;;;4936142;29;19958;-69
2023/03/07 04:29:06;;;;;;;;;;;3.60;99.90;;;;;;4922659;29;19926;-69
2023/03/07 04:31:43;;;;;;;;;;;3.60;99.90;;;;;;4931207;29;19927;-69
2023/03/07 04:34:11;;;;;;;;;;;3.60;99.90;;;;;;4927448;29;19927;-67
2023/03/07 04:36:38;;;;;;;;;;;3.60;99.90;;;;;;4926077;29;19927;-68
2023/03/07 04:39:05;;;;;;;;;;;3.60;99.90;;;;;;4925704;29;19966;-69
2023/03/07 04:41:32;;;;;;;;;;;3.60;99.90;;;;;;4947210;28;19962;-69
2023/03/07 04:44:20;;;;;;;;;;;3.60;99.90;;;;;;4926494;29;20013;-69
2023/03/07 04:46:47;;;;;;;;;;;3.50;99.90;;;;;;4928393;29;20021;-67
2023/03/07 04:49:14;;;;;;;;;;;3.50;99.90;;;;;;4944636;29;19933;-69
2023/03/07 04:51:41;;;;;;;;;;;3.50;99.90;;;;;;4939120;28;19970;-69
2023/03/07 04:54:08;;;;;;;;;;;3.50;99.90;;;;;;4931044;29;20026;-69
2023/03/07 04:56:35;;;;;;;;;;;3.50;99.90;;;;;;4931390;29;19962;-69
2023/03/07 04:59:03;;;;;;;;;;;3.50;99.90;;;;;;4928170;29;19931;-69
2023/03/07 05:01:31;;;;;;;;;;;3.50;99.90;;;;;;4935657;29;19927;-69
2023/03/07 05:03:59;;;;;;;;;;;3.50;99.90;;;;;;4923368;29;19926;-69
2023/03/07 05:06:26;;;;;;;;;;;3.50;99.90;;;;;;4921592;29;19927;-70
2023/03/07 05:08:53;;;;;;;;;;;3.40;99.90;;;;;;4936730;29;19930;-73
2023/03/07 05:11:19;;;;;;;;;;;3.40;99.90;;;;;;4939324;28;19927;-67
2023/03/07 05:13:47;;;;;;;;;;;3.40;99.90;;;;;;4943602;29;19933;-67
2023/03/07 05:16:17;;;;;;;;;;;3.40;99.90;;;;;;4937690;29;19934;-72
2023/03/07 05:18:45;;;;;;;;;;;3.40;99.90;;;;;;4939227;28;20029;-72
2023/03/07 05:21:13;;;;;;;;;;;3.40;99.90;;;;;;4944070;29;19926;-69
2023/03/07 05:23:40;;;;;;;;;;;3.30;99.90;;;;;;4944896;28;19926;-67
2023/03/07 05:26:09;;;;;;;;;;;3.40;99.90;;;;;;4941024;29;19933;-70
2023/03/07 05:28:35;;;;;;;;;;;3.40;99.90;;;;;;4960498;28;19933;-68
2023/03/07 05:31:02;;;;;;;;;;;3.40;99.90;;;;;;4944395;29;20029;-70
2023/03/07 05:33:30;;;;;;;;;;;3.40;99.90;;;;;;4931280;29;19926;-69
2023/03/07 05:36:00;;;;;;;;;;;3.40;99.90;;;;;;4942375;29;19927;-69
2023/03/07 05:38:28;;;;;;;;;;;3.50;99.90;;;;;;4946091;29;20397;-70
2023/03/07 05:40:55;;;;;;;;;;;3.50;99.90;;;;;;4941704;29;20477;-69
2023/03/07 05:43:22;;;;;;;;;;;3.60;99.90;;;;;;4943246;28;19927;-69
2023/03/07 05:45:51;;;;;;;;;;;3.60;99.90;;;;;;4941748;29;20382;-67
2023/03/07 05:48:19;;;;;;;;;;;3.70;99.90;;;;;;4935155;29;19927;-68
2023/03/07 05:50:46;;;;;;;;;;;3.60;99.90;;;;;;4936008;29;19926;-68
2023/03/07 05:53:15;;;;;;;;;;;3.60;99.90;;;;;;4937283;28;19937;-70
2023/03/07 05:55:41;;;;;;;;;;;3.60;99.90;;;;;;4941542;28;19926;-70
2023/03/07 05:58:08;;;;;;;;;;;3.60;99.90;;;;;;4940528;29;20316;-68
2023/03/07 06:00:35;;;;;;;;;;;3.60;99.90;;;;;;4934089;29;20282;-69
2023/03/07 06:03:02;;;;;;;;;;;3.60;99.90;;;;;;4940827;29;20278;-69
2023/03/07 06:05:30;;;;;;;;;;;3.60;99.90;;;;;;4936679;29;19927;-69
2023/03/07 06:07:57;;;;;;;;;;;3.60;99.90;;;;;;4938746;29;19934;-67
2023/03/07 06:10:25;;;;;;;;;;;3.60;99.90;;;;;;4939281;29;20124;-69
2023/03/07 06:12:52;;;;;;;;;;;3.60;99.90;;;;;;4939693;28;19931;-69
2023/03/07 06:15:19;;;;;;;;;;;3.60;99.90;;;;;;4940027;29;19926;-68
2023/03/07 06:17:47;;;;;;;;;;;3.60;99.90;;;;;;4946887;28;20021;-68
2023/03/07 06:20:15;;;;;;;;;;;3.60;99.90;;;;;;4940069;29;19931;-67
2023/03/07 06:22:42;;;;;;;;;;;3.60;99.90;;;;;;4942163;28;19966;-68
2023/03/07 06:25:09;;;;;;;;;;;3.60;99.90;;;;;;4934425;29;19934;-68
2023/03/07 06:27:37;;;;;;;;;;;3.60;99.90;;;;;;4945214;28;19926;-73
2023/03/07 06:30:06;;;;;;;;;;;3.60;99.90;;;;;;4938575;29;19935;-68
2023/03/07 06:32:33;;;;;;;;;;;3.70;99.90;;;;;;4940535;28;19926;-67
2023/03/07 06:35:01;;;;;;;;;;;3.70;99.90;;;;;;4935317;29;19927;-67
2023/03/07 06:37:28;;;;;;;;;;;3.70;99.90;;;;;;4938852;29;19931;-68
2023/03/07 06:39:58;;;;;;;;;;;3.70;99.90;;;;;;4940293;29;19962;-69
2023/03/07 06:42:24;;;;;;;;;;;3.80;99.90;;;;;;4941410;28;20321;-68
2023/03/07 06:44:53;;;;;;;;;;;3.80;99.90;;;;;;4937813;29;19927;-68
2023/03/07 06:47:20;;;;;;;;;;;3.80;99.90;;;;;;4940481;29;19927;-68
2023/03/07 06:49:46;;;;;;;;;;;3.80;99.90;;;;;;4938751;29;19931;-69
2023/03/07 06:52:14;;;;;;;;;;;3.80;99.90;;;;;;4940578;28;20026;-68
2023/03/07 06:54:40;;;;;;;;;;;3.80;99.90;;;;;;4938392;29;19926;-69
2023/03/07 06:57:07;;;;;;;;;;;3.90;99.90;;;;;;4935359;29;19927;-67
2023/03/07 06:59:34;;;;;;;;;;;3.90;99.90;;;;;;4938100;29;20416;-69
2023/03/07 07:02:03;;;;;;;;;;;3.90;99.90;;;;;;4939825;28;20398;-66
2023/03/07 07:04:30;;;;;;;;;;;3.90;99.90;;;;;;4938604;29;19926;-66
2023/03/07 07:06:57;;;;;;;;;;;3.90;99.90;;;;;;4935825;29;19934;-68
2023/03/07 07:09:24;;;;;;;;;;;3.90;99.90;;;;;;4940317;29;19978;-67
2023/03/07 07:11:51;;;;;;;;;;;4.00;99.90;;;;;;4939497;28;19933;-69
2023/03/07 07:14:17;;;;;;;;;;;4.00;99.90;;;;;;4940706;29;20017;-68
2023/03/07 07:16:45;;;;;;;;;;;4.00;99.90;;;;;;4939986;29;20355;-69
2023/03/07 07:19:13;;;;;;;;;;;4.00;99.90;;;;;;4938134;29;20402;-67
2023/03/07 07:21:41;;;;;;;;;;;4.00;99.90;;;;;;4949390;28;19926;-67
2023/03/07 07:24:10;;;;;;;;;;;4.00;99.90;;;;;;4937314;29;19934;-69
2023/03/07 07:26:37;;;;;;;;;;;4.00;99.90;;;;;;4934373;29;20017;-69
2023/03/07 07:29:03;;;;;;;;;;;4.00;99.90;;;;;;4942162;29;19927;-68
2023/03/07 07:31:30;;;;;;;;;;;4.00;99.90;;;;;;4941881;29;19935;-68
2023/03/07 07:33:57;;;;;;;;;;;4.00;99.90;;;;;;4941688;29;19930;-68
2023/03/07 07:36:28;;;;;;;;;;;4.10;99.90;;;;;;4940784;29;19950;-68
2023/03/07 07:38:55;;;;;;;;;;;4.10;99.90;;;;;;4938333;29;19931;-69
2023/03/07 07:41:22;;;;;;;;;;;4.10;99.90;;;;;;4953775;28;20030;-67
2023/03/07 07:43:53;;;;;;;;;;;4.10;99.90;;;;;;4939117;29;19934;-68
2023/03/07 07:46:27;;;;;;;;;;;4.10;99.90;;;;;;4946348;29;19974;-68
2023/03/07 07:48:54;;;;;;;;;;;4.10;99.90;;;;;;4943995;28;19927;-66
2023/03/07 07:51:21;;;;;;;;;;;4.10;99.90;;;;;;4944485;28;19934;-68
2023/03/07 07:53:49;;;;;;;;;;;4.20;99.90;;;;;;4938488;29;19937;-67
2023/03/07 07:56:16;;;;;;;;;;;4.20;99.90;;;;;;4933356;29;19974;-68
2023/03/07 07:58:43;;;;;;;;;;;4.20;99.90;;;;;;4938551;28;19927;-67
2023/03/07 08:01:14;;;;;;;;;;;4.20;99.90;;;;;;4934064;29;20061;-65
2023/03/07 08:03:41;;;;;;;;;;;4.20;99.90;;;;;;4932231;29;19926;-66
2023/03/07 08:06:07;;;;;;;;;;;4.20;99.90;;;;;;4932690;29;19986;-67
2023/03/07 08:08:34;;;;;;;;;;;4.20;99.90;;;;;;4931569;29;19927;-67
2023/03/07 08:11:02;;;;;;;;;;;4.30;99.90;;;;;;4934408;29;19934;-68
2023/03/07 08:13:29;;;;;;;;;;;4.40;99.90;;;;;;4939584;28;19927;-66
2023/03/07 08:15:56;;;;;;;;;;;4.50;99.90;;;;;;4936913;29;19934;-68
2023/03/07 08:18:23;;;;;;;;;;;4.50;99.90;;;;;;4937280;29;19926;-68
2023/03/07 08:20:49;;;;;;;;;;;4.60;99.90;;;;;;4939287;29;20371;-70
2023/03/07 08:23:16;;;;;;;;;;;4.50;99.90;;;;;;4934093;28;19975;-67
2023/03/07 08:25:43;;;;;;;;;;;4.60;99.90;;;;;;4932274;29;19934;-67
2023/03/07 08:28:11;;;;;;;;;;;4.60;99.90;;;;;;4937234;29;19927;-68
2023/03/07 08:30:38;;;;;;;;;;;4.50;99.90;;;;;;4933663;29;19930;-67
2023/03/07 08:33:06;;;;;;;;;;;4.60;99.90;;;;;;4936706;28;19931;-68
2023/03/07 08:35:32;;;;;;;;;;;4.60;99.90;;;;;;4929322;29;19927;-67
2023/03/07 08:37:59;;;;;;;;;;;4.60;99.90;;;;;;4930811;29;19927;-68
2023/03/07 08:40:27;;;;;;;;;;;4.60;99.90;;;;;;4934166;29;20430;-67
2023/03/07 08:42:54;;;;;;;;;;;4.60;99.90;;;;;;4931889;29;19931;-68
2023/03/07 08:45:23;;;;;;;;;;;4.70;99.90;;;;;;4932749;29;19934;-67
2023/03/07 08:47:51;;;;;;;;;;;4.80;99.90;;;;;;4934988;29;19958;-67
2023/03/07 08:50:18;;;;;;;;;;;4.80;99.90;;;;;;4935291;29;19934;-67
2023/03/07 08:52:45;;;;;;;;;;;4.80;99.90;;;;;;4931547;28;19931;-67
2023/03/07 08:55:11;;;;;;;;;;;4.80;99.90;;;;;;4936580;29;19973;-67
2023/03/07 08:57:38;;;;;;;;;;;4.90;99.90;;;;;;4935475;29;19954;-65
2023/03/07 09:00:07;;;;;;;;;;;4.90;99.90;;;;;;4936816;29;19958;-67
2023/03/07 09:02:35;;;;;;;;;;;4.80;99.90;;;;;;4941391;28;19934;-67
2023/03/07 09:05:02;;;;;;;;;;;4.90;99.90;;;;;;4944532;29;20029;-67
2023/03/07 09:07:28;;;;;;;;;;;4.90;99.90;;;;;;4941820;29;19974;-67
2023/03/07 09:09:55;;;;;;;;;;;4.90;99.90;;;;;;4938379;29;19967;-67
2023/03/07 09:12:22;;;;;;;;;;;4.90;99.90;;;;;;4937484;29;20454;-66
2023/03/07 09:14:48;;;;;;;;;;;4.90;99.90;;;;;;4932961;29;19963;-67
2023/03/07 09:17:15;;;;;;;;;;;4.90;99.90;;;;;;4941466;28;20493;-67
2023/03/07 09:19:43;;;;;;;;;;;4.90;99.90;;;;;;4938190;29;19949;-67
2023/03/07 09:22:10;;;;;;;;;;;4.90;99.90;;;;;;4932980;28;19927;-68
2023/03/07 09:24:36;;;;;;;;;;;4.90;99.90;;;;;;4938264;29;19970;-67
2023/03/07 09:27:03;;;;;;;;;;;4.90;99.90;;;;;;4937941;29;20026;-67
2023/03/07 09:29:30;;;;;;;;;;;4.80;99.90;;;;;;4936877;29;19966;-67
2023/03/07 09:31:56;;;;;;;;;;;4.80;99.90;;;;;;4939013;28;19990;-66
2023/03/07 09:34:23;;;;;;;;;;;4.80;99.90;;;;;;4939548;29;20014;-67
2023/03/07 09:36:51;;;;;;;;;;;4.70;99.90;;;;;;4939218;29;19977;-67
2023/03/07 09:39:18;;;;;;;;;;;4.80;99.90;;;;;;4933906;29;19927;-67
2023/03/07 09:41:53;;;;;;;;;;;4.80;99.90;;;;;;4929410;29;19964;-67
2023/03/07 09:44:23;;;;;;;;;;;4.80;99.90;;;;;;4936360;29;20437;-67
2023/03/07 09:47:20;;;;;;;;;;;4.80;99.90;;;;;;4930607;29;19934;-66
2023/03/07 09:49:47;;;;;;;;;;;4.90;99.90;;;;;;4935115;29;19958;-67
2023/03/07 09:52:17;;;;;;;;;;;4.90;99.90;;;;;;4930790;29;20018;-67
2023/03/07 09:54:45;;;;;;;;;;;4.90;99.90;;;;;;4939193;29;19933;-68
2023/03/07 09:57:14;;;;;;;;;;;4.90;99.90;;;;;;4938117;29;19926;-67
2023/03/07 09:59:42;;;;;;;;;;;4.90;99.90;;;;;;4936346;29;20459;-67
2023/03/07 10:02:13;;;;;;;;;;;4.90;99.90;;;;;;4942636;29;20416;-65
2023/03/07 10:04:43;;;;;;;;;;;4.80;99.90;;;;;;4936592;29;20021;-68
2023/03/07 10:07:11;;;;;;;;;;;4.70;99.90;;;;;;4935173;29;20025;-67
2023/03/07 10:09:40;;;;;;;;;;;4.80;99.90;;;;;;4936093;29;19978;-66
2023/03/07 10:12:17;;;;;;;;;;;4.80;99.90;;;;;;4937568;29;19927;-67
2023/03/07 10:15:08;;;;;;;;;;;4.60;99.90;;;;;;4937565;29;19974;-67
2023/03/07 10:17:44;;;;;;;;;;;4.50;99.90;;;;;;4916895;29;19927;-77
2023/03/07 10:20:16;;;;;;;;;;;4.50;99.90;;;;;;4938595;29;20398;-67
2023/03/07 10:22:47;;;;;;;;;;;4.60;99.90;;;;;;4940832;29;19985;-67
2023/03/07 10:25:18;;;;;;;;;;;4.60;99.90;;;;;;4929753;29;19978;-67
2023/03/07 10:27:47;;;;;;;;;;;4.60;99.90;;;;;;4942908;29;19981;-67
2023/03/07 10:30:16;;;;;;;;;;;4.50;99.90;;;;;;4935743;29;19926;-67
2023/03/07 10:32:44;;;;;;;;;;;4.50;99.90;;;;;;4934318;29;19965;-67
2023/03/07 10:35:16;;;;;;;;;;;4.60;99.90;;;;;;4936460;29;19974;-68
2023/03/07 10:37:48;;;;;;;;;;;4.60;99.90;;;;;;4939436;29;19941;-67
2023/03/07 10:40:19;;;;;;;;;;;4.60;99.90;;;;;;4938908;29;19927;-68
2023/03/07 10:42:46;;;;;;;;;;;4.60;99.90;;;;;;4937314;29;19926;-67
2023/03/07 10:45:13;;;;;;;;;;;4.60;99.90;;;;;;4935327;29;19990;-67
2023/03/07 10:47:40;;;;;;;;;;;4.60;99.90;;;;;;4936928;29;19927;-68
2023/03/07 10:50:16;;;;;;;;;;;4.60;99.90;;;;;;4939303;29;20346;-67
2023/03/07 10:52:46;;;;;;;;;;;4.60;99.90;;;;;;4935729;29;19926;-67
2023/03/07 10:55:34;;;;;;;;;;;4.60;99.90;;;;;;4936683;29;20022;-68
2023/03/07 10:58:15;;;;;;;;;;;4.50;99.90;;;;;;4935800;29;20389;-68
2023/03/07 11:00:43;;;;;;;;;;;4.60;99.90;;;;;;4928182;28;19927;-67
2023/03/07 11:03:21;;;;;;;;;;;4.60;99.90;;;;;;4931963;29;19927;-67
2023/03/07 11:05:49;;;;;;;;;;;4.70;99.90;;;;;;4938297;29;19931;-68
2023/03/07 11:08:20;;;;;;;;;;;4.70;99.90;;;;;;4931422;29;19966;-67
2023/03/07 11:10:48;;;;;;;;;;;4.70;99.90;;;;;;4931259;29;19978;-68
2023/03/07 11:13:16;;;;;;;;;;;4.70;99.90;;;;;;4933276;29;19927;-68
2023/03/07 11:15:43;;;;;;;;;;;4.70;99.90;;;;;;4937231;29;19963;-67
2023/03/07 11:18:24;;;;;;;;;;;4.70;99.90;;;;;;4945263;28;19927;-67
2023/03/07 11:20:51;;;;;;;;;;;4.70;99.90;;;;;;4938615;29;19930;-67
2023/03/07 11:23:22;;;;;;;;;;;4.60;99.90;;;;;;4933268;29;19936;-67
2023/03/07 11:25:51;;;;;;;;;;;4.60;99.90;;;;;;4938053;29;19935;-67
2023/03/07 11:28:26;;;;;;;;;;;4.60;99.90;;;;;;4940491;29;19946;-68
2023/03/07 11:30:53;;;;;;;;;;;4.60;99.90;;;;;;4929718;29;20450;-68
2023/03/07 11:33:22;;;;;;;;;;;4.60;99.90;;;;;;4938126;29;19934;-68
2023/03/07 11:35:55;;;;;;;;;;;4.70;99.90;;;;;;4932459;29;19974;-66
2023/03/07 11:38:26;;;;;;;;;;;4.60;99.90;;;;;;4927892;29;19974;-67
2023/03/07 11:40:59;;;;;;;;;;;4.70;99.90;;;;;;4922580;29;19935;-68
2023/03/07 11:43:31;;;;;;;;;;;4.70;99.90;;;;;;4925684;29;19934;-67
2023/03/07 11:46:00;;;;;;;;;;;4.70;99.90;;;;;;4930383;29;19998;-67
2023/03/07 11:48:33;;;;;;;;;;;4.70;99.90;;;;;;4932565;29;20397;-69
2023/03/07 11:51:02;;;;;;;;;;;4.70;99.90;;;;;;4929167;29;20462;-67
2023/03/07 11:53:42;;;;;;;;;;;4.60;99.90;;;;;;4929180;29;19934;-67
2023/03/07 11:56:21;;;;;;;;;;;4.60;99.90;;;;;;4918717;29;20022;-70
2023/03/07 11:58:57;;;;;;;;;;;4.60;99.90;;;;;;4933359;29;19935;-69
2023/03/07 12:01:27;;;;;;;;;;;4.60;99.90;;;;;;4933469;29;19927;-69
2023/03/07 12:04:04;;;;;;;;;;;4.60;99.90;;;;;;4944414;28;20390;-70
2023/03/07 12:06:35;;;;;;;;;;;4.60;99.90;;;;;;4933313;29;19927;-69
2023/03/07 12:09:15;;;;;;;;;;;4.60;99.90;;;;;;4938076;29;19930;-70
2023/03/07 12:11:49;;;;;;;;;;;4.60;99.90;;;;;;4935504;29;19930;-70
2023/03/07 12:14:21;;;;;;;;;;;4.60;99.90;;;;;;4944122;29;19966;-71
2023/03/07 12:16:52;;;;;;;;;;;4.60;99.90;;;;;;4936885;29;19973;-67
2023/03/07 12:19:33;;;;;;;;;;;4.60;99.90;;;;;;4930727;29;19966;-67
2023/03/07 12:22:05;;;;;;;;;;;4.60;99.90;;;;;;4913280;29;19935;-67
2023/03/07 12:24:35;;;;;;;;;;;4.60;99.90;;;;;;4945373;28;19934;-63
2023/03/07 12:27:05;;;;;;;;;;;4.60;99.90;;;;;;4930004;29;19927;-67
2023/03/07 12:29:34;;;;;;;;;;;4.60;99.90;;;;;;4931480;29;20386;-65
2023/03/07 12:32:03;;;;;;;;;;;4.60;99.90;;;;;;4924403;29;19927;-68
2023/03/07 12:34:34;;;;;;;;;;;4.60;99.90;;;;;;4928805;29;19927;-68
2023/03/07 12:37:03;;;;;;;;;;;4.60;99.90;;;;;;4933850;29;19926;-67
2023/03/07 12:39:32;;;;;;;;;;;4.60;99.90;;;;;;4932231;29;19950;-67
2023/03/07 12:42:01;;;;;;;;;;;4.60;99.90;;;;;;4932441;29;19986;-68
2023/03/07 12:44:35;;;;;;;;;;;4.50;99.90;;;;;;4927800;29;19994;-67
2023/03/07 12:47:08;;;;;;;;;;;4.50;99.90;;;;;;4925260;29;20022;-67
2023/03/07 12:49:39;;;;;;;;;;;4.50;99.90;;;;;;4944944;28;19927;-68
2023/03/07 12:52:12;;;;;;;;;;;4.50;99.90;;;;;;4932382;29;19934;-66
2023/03/07 12:54:40;;;;;;;;;;;4.50;99.90;;;;;;4924423;29;19934;-68
2023/03/07 12:57:09;;;;;;;;;;;4.50;99.90;;;;;;4926322;29;19927;-67
2023/03/07 12:59:39;;;;;;;;;;;4.40;99.90;;;;;;4929774;29;19949;-68
2023/03/07 13:02:10;;;;;;;;;;;4.40;99.90;;;;;;4931750;29;19927;-69
2023/03/07 13:04:38;;;;;;;;;;;4.30;99.90;;;;;;4931669;29;20370;-68
2023/03/07 13:07:07;;;;;;;;;;;4.30;99.90;;;;;;4929285;29;19983;-68
2023/03/07 13:09:34;;;;;;;;;;;4.20;99.90;;;;;;4931095;29;19931;-67
2023/03/07 13:12:09;;;;;;;;;;;4.20;99.90;;;;;;4922276;29;19927;-68
2023/03/07 13:14:38;;;;;;;;;;;4.20;99.90;;;;;;4930240;29;19931;-65
2023/03/07 13:17:08;;;;;;;;;;;4.20;99.90;;;;;;4923869;29;19974;-68
2023/03/07 13:20:03;;;;;;;;;;;4.20;99.90;;;;;;4921022;29;20279;-68
2023/03/07 13:22:49;;;;;;;;;;;4.10;99.90;;;;;;4921112;29;19993;-68
2023/03/07 13:25:34;;;;;;;;;;;4.00;99.90;;;;;;4921795;29;19927;-67
2023/03/07 13:28:02;;;;;;;;;;;3.80;99.90;;;;;;4925296;29;19927;-68
2023/03/07 13:30:30;;;;;;;;;;;3.60;99.90;;;;;;4929631;29;20350;-68
2023/03/07 13:32:58;;;;;;;;;;;3.50;99.90;;;;;;4920831;29;19927;-68
2023/03/07 13:35:45;;;;;;;;;;;3.40;99.90;;;;;;4927099;29;20347;-68
2023/03/07 13:38:29;;;;;;;;;;;3.30;99.90;;;;;;4924448;29;19926;-68
2023/03/07 13:40:57;;;;;;;;;;;3.30;99.90;;;;;;4929003;29;20018;-69
2023/03/07 13:43:36;;;;;;;;;;;3.20;99.90;;;;;;4933802;29;19930;-69
2023/03/07 13:46:05;;;;;;;;;;;3.10;99.90;;;;;;4934774;29;19926;-68
2023/03/07 13:48:47;;;;;;;;;;;3.00;99.90;;;;;;4934904;29;19930;-68
2023/03/07 13:51:14;;;;;;;;;;;3.00;99.90;;;;;;4930752;29;19927;-68
2023/03/07 13:53:42;;;;;;;;;;;2.90;99.90;;;;;;4941522;28;19972;-66
2023/03/07 13:56:11;;;;;;;;;;;2.90;99.90;;;;;;4930429;29;19934;-68
2023/03/07 13:58:39;;;;;;;;;;;2.80;99.90;;;;;;4929047;29;19926;-66
2023/03/07 14:01:13;;;;;;;;;;;2.80;99.90;;;;;;4934656;29;20355;-68
2023/03/07 14:03:42;;;;;;;;;;;2.70;99.90;;;;;;4931729;29;19927;-67
2023/03/07 14:06:11;;;;;;;;;;;2.60;99.90;;;;;;4930110;29;20298;-65
2023/03/07 14:08:38;;;;;;;;;;;2.50;99.90;;;;;;4925627;29;19931;-67
2023/03/07 14:11:06;;;;;;;;;;;2.50;99.90;;;;;;4925300;29;19927;-66
2023/03/07 14:13:39;;;;;;;;;;;2.50;99.90;;;;;;4927644;29;19934;-69
2023/03/07 14:16:14;;;;;;;;;;;2.50;99.90;;;;;;4930778;29;19927;-68
2023/03/07 14:18:45;;;;;;;;;;;2.50;99.90;;;;;;4928060;29;19978;-66
2023/03/07 14:21:17;;;;;;;;;;;2.50;99.90;;;;;;4931128;29;19931;-68
2023/03/07 14:24:02;;;;;;;;;;;2.50;99.90;;;;;;4932224;29;19931;-68
2023/03/07 14:26:32;;;;;;;;;;;2.50;99.90;;;;;;4930607;29;19933;-68
2023/03/07 14:28:59;;;;;;;;;;;2.40;99.90;;;;;;4934408;29;19927;-68
2023/03/07 14:31:29;;;;;;;;;;;2.40;99.90;;;;;;4929224;29;19926;-69
2023/03/07 14:33:56;;;;;;;;;;;2.50;99.90;;;;;;4928302;29;20315;-68
2023/03/07 14:36:24;;;;;;;;;;;2.40;99.90;;;;;;4934390;29;19927;-67
2023/03/07 14:38:52;;;;;;;;;;;2.50;99.90;;;;;;4940064;29;19926;-68
2023/03/07 14:41:25;;;;;;;;;;;2.40;99.90;;;;;;4934241;29;19981;-69